sensor_id;sensor_type;location;lat;lon;timestamp;pressure;altitude;pressure_sealevel;temperature;humidity
77041;BME280;65974;42.664;23.264;2023-02-26T00:00:13;93148.72;;;14.00;39.14
77041;BME280;65974;42.664;23.264;2023-02-26T00:02:44;93169.94;;;14.07;39.33
77041;BME280;65974;42.664;23.264;2023-02-26T00:05:14;93153.88;;;14.07;38.05
77041;BME280;65974;42.664;23.264;2023-02-26T00:07:40;93160.38;;;14.06;38.87
77041;BME280;65974;42.664;23.264;2023-02-26T00:10:07;93156.00;;;13.87;40.49
77041;BME280;65974;42.664;23.264;2023-02-26T00:12:34;93141.78;;;13.90;39.72
77041;BME280;65974;42.664;23.264;2023-02-26T00:15:00;93131.09;;;13.77;41.18
77041;BME280;65974;42.664;23.264;2023-02-26T00:20:23;93149.03;;;14.02;38.78
77041;BME280;65974;42.664;23.264;2023-02-26T00:22:48;93147.34;;;13.83;39.96
77041;BME280;65974;42.664;23.264;2023-02-26T00:25:14;93121.97;;;13.75;41.21
77041;BME280;65974;42.664;23.264;2023-02-26T00:27:40;93161.47;;;13.83;39.43
77041;BME280;65974;42.664;23.264;2023-02-26T00:30:07;93110.19;;;13.85;39.74
77041;BME280;65974;42.664;23.264;2023-02-26T00:32:33;93138.16;;;13.84;39.01
77041;BME280;65974;42.664;23.264;2023-02-26T00:34:59;93118.66;;;13.83;38.52
77041;BME280;65974;42.664;23.264;2023-02-26T00:42:33;93105.94;;;13.75;40.28
77041;BME280;65974;42.664;23.264;2023-02-26T00:44:59;93130.75;;;13.63;41.27
77041;BME280;65974;42.664;23.264;2023-02-26T00:55:08;93089.66;;;13.82;39.04
77041;BME280;65974;42.664;23.264;2023-02-26T00:57:34;93117.91;;;13.83;39.00
77041;BME280;65974;42.664;23.264;2023-02-26T00:59:59;93112.13;;;13.84;38.75
77041;BME280;65974;42.664;23.264;2023-02-26T01:02:25;93084.72;;;13.68;39.10
77041;BME280;65974;42.664;23.264;2023-02-26T01:04:51;93077.91;;;13.67;40.12
77041;BME280;65974;42.664;23.264;2023-02-26T01:07:21;93126.47;;;13.78;38.42
77041;BME280;65974;42.664;23.264;2023-02-26T01:09:48;93100.56;;;13.75;38.89
77041;BME280;65974;42.664;23.264;2023-02-26T01:12:14;93127.09;;;13.69;39.26
77041;BME280;65974;42.664;23.264;2023-02-26T01:14:42;93112.03;;;13.75;39.15
77041;BME280;65974;42.664;23.264;2023-02-26T01:17:34;93082.38;;;13.70;39.00
77041;BME280;65974;42.664;23.264;2023-02-26T01:20:00;93089.31;;;13.67;39.50
77041;BME280;65974;42.664;23.264;2023-02-26T01:22:36;93096.31;;;13.65;39.09
77041;BME280;65974;42.664;23.264;2023-02-26T01:25:04;93105.69;;;13.57;39.45
77041;BME280;65974;42.664;23.264;2023-02-26T01:27:30;93094.69;;;13.55;39.36
77041;BME280;65974;42.664;23.264;2023-02-26T01:29:56;93057.78;;;13.50;39.46
77041;BME280;65974;42.664;23.264;2023-02-26T01:38:12;93056.81;;;13.44;40.00
77041;BME280;65974;42.664;23.264;2023-02-26T01:43:34;93057.34;;;13.39;39.75
77041;BME280;65974;42.664;23.264;2023-02-26T01:46:17;93051.13;;;13.42;39.48
77041;BME280;65974;42.664;23.264;2023-02-26T01:48:54;93086.25;;;13.44;39.70
77041;BME280;65974;42.664;23.264;2023-02-26T01:54:05;93033.47;;;13.57;38.19
77041;BME280;65974;42.664;23.264;2023-02-26T01:56:30;93038.75;;;13.48;38.89
77041;BME280;65974;42.664;23.264;2023-02-26T01:58:56;93059.91;;;13.42;39.25
77041;BME280;65974;42.664;23.264;2023-02-26T02:01:22;93019.78;;;13.42;38.79
77041;BME280;65974;42.664;23.264;2023-02-26T02:03:47;93024.63;;;13.35;39.12
77041;BME280;65974;42.664;23.264;2023-02-26T02:06:19;93013.50;;;13.23;39.47
77041;BME280;65974;42.664;23.264;2023-02-26T02:08:46;93072.00;;;13.34;38.60
77041;BME280;65974;42.664;23.264;2023-02-26T02:11:12;92992.84;;;13.49;38.05
77041;BME280;65974;42.664;23.264;2023-02-26T02:16:11;93014.25;;;13.24;38.77
77041;BME280;65974;42.664;23.264;2023-02-26T02:21:27;92995.31;;;13.44;37.92
77041;BME280;65974;42.664;23.264;2023-02-26T02:24:16;93003.88;;;13.39;38.05
77041;BME280;65974;42.664;23.264;2023-02-26T02:27:08;92988.78;;;13.32;38.41
77041;BME280;65974;42.664;23.264;2023-02-26T02:30:05;93004.06;;;13.44;38.02
77041;BME280;65974;42.664;23.264;2023-02-26T02:40:17;93000.44;;;13.51;37.86
77041;BME280;65974;42.664;23.264;2023-02-26T02:42:58;93017.25;;;13.39;37.91
77041;BME280;65974;42.664;23.264;2023-02-26T02:45:50;93000.88;;;13.37;38.39
77041;BME280;65974;42.664;23.264;2023-02-26T02:48:27;93009.00;;;13.46;37.73
77041;BME280;65974;42.664;23.264;2023-02-26T02:51:00;93045.91;;;13.38;38.13
77041;BME280;65974;42.664;23.264;2023-02-26T02:53:33;93004.63;;;13.39;37.67
77041;BME280;65974;42.664;23.264;2023-02-26T02:56:17;93011.38;;;13.44;37.41
77041;BME280;65974;42.664;23.264;2023-02-26T02:58:58;93051.88;;;13.42;37.78
77041;BME280;65974;42.664;23.264;2023-02-26T03:01:26;93023.53;;;13.45;37.55
77041;BME280;65974;42.664;23.264;2023-02-26T03:04:00;93032.09;;;13.40;37.14
77041;BME280;65974;42.664;23.264;2023-02-26T03:06:27;93031.13;;;13.46;37.21
77041;BME280;65974;42.664;23.264;2023-02-26T03:08:52;93036.72;;;13.52;37.03
77041;BME280;65974;42.664;23.264;2023-02-26T03:11:18;93074.03;;;13.43;37.04
77041;BME280;65974;42.664;23.264;2023-02-26T03:13:45;93012.00;;;13.48;37.00
77041;BME280;65974;42.664;23.264;2023-02-26T03:19:33;93045.47;;;13.40;37.08
77041;BME280;65974;42.664;23.264;2023-02-26T03:24:35;93058.84;;;13.40;37.44
77041;BME280;65974;42.664;23.264;2023-02-26T03:27:22;93045.69;;;13.33;37.89
77041;BME280;65974;42.664;23.264;2023-02-26T03:30:25;93033.94;;;13.30;37.71
77041;BME280;65974;42.664;23.264;2023-02-26T03:33:09;93032.72;;;13.31;37.70
77041;BME280;65974;42.664;23.264;2023-02-26T03:36:10;93036.38;;;13.24;38.13
77041;BME280;65974;42.664;23.264;2023-02-26T03:38:54;93038.53;;;13.30;37.75
77041;BME280;65974;42.664;23.264;2023-02-26T03:41:38;93032.22;;;13.23;38.49
77041;BME280;65974;42.664;23.264;2023-02-26T03:44:13;93026.03;;;13.27;38.60
77041;BME280;65974;42.664;23.264;2023-02-26T03:46:44;93036.06;;;13.22;38.59
77041;BME280;65974;42.664;23.264;2023-02-26T03:49:15;93044.28;;;13.15;39.10
77041;BME280;65974;42.664;23.264;2023-02-26T03:51:43;93045.78;;;13.16;38.89
77041;BME280;65974;42.664;23.264;2023-02-26T03:54:45;93013.63;;;13.20;38.31
77041;BME280;65974;42.664;23.264;2023-02-26T03:57:12;93028.25;;;13.15;38.85
77041;BME280;65974;42.664;23.264;2023-02-26T03:59:38;93029.53;;;13.11;39.95
77041;BME280;65974;42.664;23.264;2023-02-26T04:02:11;93003.56;;;13.11;39.31
77041;BME280;65974;42.664;23.264;2023-02-26T04:04:46;93014.56;;;13.13;38.68
77041;BME280;65974;42.664;23.264;2023-02-26T04:07:15;93007.72;;;13.12;39.29
77041;BME280;65974;42.664;23.264;2023-02-26T04:09:51;93047.72;;;13.29;37.94
77041;BME280;65974;42.664;23.264;2023-02-26T04:12:24;93027.94;;;13.26;38.42
77041;BME280;65974;42.664;23.264;2023-02-26T04:14:50;93027.19;;;13.13;39.20
77041;BME280;65974;42.664;23.264;2023-02-26T04:17:16;93006.31;;;13.20;38.24
77041;BME280;65974;42.664;23.264;2023-02-26T04:19:41;93021.72;;;13.42;36.11
77041;BME280;65974;42.664;23.264;2023-02-26T04:22:07;93007.94;;;13.31;38.11
77041;BME280;65974;42.664;23.264;2023-02-26T04:24:32;92996.25;;;13.24;38.06
77041;BME280;65974;42.664;23.264;2023-02-26T04:26:57;93013.63;;;13.33;37.81
77041;BME280;65974;42.664;23.264;2023-02-26T04:29:23;93016.59;;;13.22;38.01
77041;BME280;65974;42.664;23.264;2023-02-26T04:31:48;93004.41;;;13.21;38.09
77041;BME280;65974;42.664;23.264;2023-02-26T04:34:14;92990.50;;;13.26;37.96
77041;BME280;65974;42.664;23.264;2023-02-26T04:36:39;92980.13;;;13.41;36.90
77041;BME280;65974;42.664;23.264;2023-02-26T04:39:05;92978.22;;;13.29;37.25
77041;BME280;65974;42.664;23.264;2023-02-26T04:41:30;92978.28;;;13.38;37.18
77041;BME280;65974;42.664;23.264;2023-02-26T04:43:55;93007.31;;;13.27;37.92
77041;BME280;65974;42.664;23.264;2023-02-26T04:46:21;92984.28;;;13.42;36.57
77041;BME280;65974;42.664;23.264;2023-02-26T04:48:46;92969.22;;;13.48;36.37
77041;BME280;65974;42.664;23.264;2023-02-26T04:51:12;92917.19;;;13.49;36.57
77041;BME280;65974;42.664;23.264;2023-02-26T04:53:37;92948.09;;;13.62;35.95
77041;BME280;65974;42.664;23.264;2023-02-26T04:56:02;92988.53;;;13.64;35.23
77041;BME280;65974;42.664;23.264;2023-02-26T04:58:28;92948.28;;;13.68;35.73
77041;BME280;65974;42.664;23.264;2023-02-26T05:00:53;92998.59;;;13.60;35.90
77041;BME280;65974;42.664;23.264;2023-02-26T05:03:19;92973.78;;;13.60;35.42
77041;BME280;65974;42.664;23.264;2023-02-26T05:05:45;92969.25;;;13.69;35.05
77041;BME280;65974;42.664;23.264;2023-02-26T05:08:11;92937.44;;;13.84;34.72
77041;BME280;65974;42.664;23.264;2023-02-26T05:10:36;92939.59;;;13.76;34.96
77041;BME280;65974;42.664;23.264;2023-02-26T05:13:02;92930.31;;;13.68;34.72
77041;BME280;65974;42.664;23.264;2023-02-26T05:15:27;92963.78;;;13.73;35.12
77041;BME280;65974;42.664;23.264;2023-02-26T05:17:53;92948.50;;;13.73;34.99
77041;BME280;65974;42.664;23.264;2023-02-26T05:20:18;92944.97;;;13.64;35.07
77041;BME280;65974;42.664;23.264;2023-02-26T05:22:44;92912.03;;;13.67;35.38
77041;BME280;65974;42.664;23.264;2023-02-26T05:25:10;92939.28;;;13.74;34.67
77041;BME280;65974;42.664;23.264;2023-02-26T05:27:39;92915.94;;;13.75;34.76
77041;BME280;65974;42.664;23.264;2023-02-26T05:30:05;92925.16;;;13.74;34.97
77041;BME280;65974;42.664;23.264;2023-02-26T05:32:31;92949.22;;;13.74;35.12
77041;BME280;65974;42.664;23.264;2023-02-26T05:34:56;92926.97;;;13.77;34.56
77041;BME280;65974;42.664;23.264;2023-02-26T05:37:22;92923.97;;;13.75;35.02
77041;BME280;65974;42.664;23.264;2023-02-26T05:39:47;92911.91;;;13.70;35.29
77041;BME280;65974;42.664;23.264;2023-02-26T05:42:13;92927.72;;;13.77;35.29
77041;BME280;65974;42.664;23.264;2023-02-26T05:44:38;92895.78;;;13.83;34.78
77041;BME280;65974;42.664;23.264;2023-02-26T05:47:03;92917.19;;;13.83;34.88
77041;BME280;65974;42.664;23.264;2023-02-26T05:49:29;92925.47;;;13.97;34.20
77041;BME280;65974;42.664;23.264;2023-02-26T05:51:54;92922.06;;;13.97;34.03
77041;BME280;65974;42.664;23.264;2023-02-26T05:54:20;92951.84;;;13.99;34.03
77041;BME280;65974;42.664;23.264;2023-02-26T05:56:46;92917.41;;;14.10;33.75
77041;BME280;65974;42.664;23.264;2023-02-26T05:59:11;92918.16;;;14.11;33.83
77041;BME280;65974;42.664;23.264;2023-02-26T06:01:37;92939.06;;;14.03;34.00
77041;BME280;65974;42.664;23.264;2023-02-26T06:04:03;92949.28;;;14.17;33.63
77041;BME280;65974;42.664;23.264;2023-02-26T06:06:29;92918.06;;;14.23;33.14
77041;BME280;65974;42.664;23.264;2023-02-26T06:08:55;92968.75;;;14.30;32.97
77041;BME280;65974;42.664;23.264;2023-02-26T06:11:20;92915.41;;;14.23;33.22
77041;BME280;65974;42.664;23.264;2023-02-26T06:13:46;92950.84;;;14.27;33.51
77041;BME280;65974;42.664;23.264;2023-02-26T06:16:11;92982.44;;;14.32;32.77
77041;BME280;65974;42.664;23.264;2023-02-26T06:18:37;92925.00;;;14.33;32.83
77041;BME280;65974;42.664;23.264;2023-02-26T06:21:02;92967.47;;;14.44;32.77
77041;BME280;65974;42.664;23.264;2023-02-26T06:23:28;92952.75;;;14.39;32.98
77041;BME280;65974;42.664;23.264;2023-02-26T06:25:53;92942.44;;;14.59;32.27
77041;BME280;65974;42.664;23.264;2023-02-26T06:28:19;92952.84;;;14.57;32.65
77041;BME280;65974;42.664;23.264;2023-02-26T06:30:45;92956.41;;;14.54;31.97
77041;BME280;65974;42.664;23.264;2023-02-26T06:33:11;92982.31;;;14.57;32.58
77041;BME280;65974;42.664;23.264;2023-02-26T06:35:36;92954.97;;;14.62;31.64
77041;BME280;65974;42.664;23.264;2023-02-26T06:38:02;92936.63;;;14.61;31.85
77041;BME280;65974;42.664;23.264;2023-02-26T06:40:28;92918.63;;;14.61;32.03
77041;BME280;65974;42.664;23.264;2023-02-26T06:42:53;92955.13;;;14.68;31.65
77041;BME280;65974;42.664;23.264;2023-02-26T06:45:19;92916.56;;;14.65;32.05
77041;BME280;65974;42.664;23.264;2023-02-26T06:47:44;92927.28;;;14.65;31.89
77041;BME280;65974;42.664;23.264;2023-02-26T06:50:10;92889.19;;;14.70;31.49
77041;BME280;65974;42.664;23.264;2023-02-26T06:52:35;92968.03;;;14.82;30.90
77041;BME280;65974;42.664;23.264;2023-02-26T06:55:02;92924.09;;;14.80;31.33
77041;BME280;65974;42.664;23.264;2023-02-26T06:57:27;92980.72;;;14.91;30.95
77041;BME280;65974;42.664;23.264;2023-02-26T06:59:53;92916.06;;;14.89;30.67
77041;BME280;65974;42.664;23.264;2023-02-26T07:02:20;92973.56;;;14.88;30.76
77041;BME280;65974;42.664;23.264;2023-02-26T07:04:46;92949.19;;;14.95;30.91
77041;BME280;65974;42.664;23.264;2023-02-26T07:07:12;92933.34;;;14.88;31.33
77041;BME280;65974;42.664;23.264;2023-02-26T07:09:38;92937.41;;;14.92;31.04
77041;BME280;65974;42.664;23.264;2023-02-26T07:12:03;92930.09;;;14.93;30.89
77041;BME280;65974;42.664;23.264;2023-02-26T07:14:31;92958.69;;;14.96;31.24
77041;BME280;65974;42.664;23.264;2023-02-26T07:16:56;92905.09;;;14.96;31.01
77041;BME280;65974;42.664;23.264;2023-02-26T07:19:22;92907.94;;;15.01;31.13
77041;BME280;65974;42.664;23.264;2023-02-26T07:21:47;92944.88;;;15.06;30.75
77041;BME280;65974;42.664;23.264;2023-02-26T07:24:13;92928.03;;;15.06;31.00
77041;BME280;65974;42.664;23.264;2023-02-26T07:26:38;92932.69;;;15.05;31.29
77041;BME280;65974;42.664;23.264;2023-02-26T07:29:04;92896.63;;;15.06;31.56
77041;BME280;65974;42.664;23.264;2023-02-26T07:31:30;92939.56;;;15.15;31.07
77041;BME280;65974;42.664;23.264;2023-02-26T07:33:56;92910.06;;;15.15;31.22
77041;BME280;65974;42.664;23.264;2023-02-26T07:36:21;92918.88;;;15.16;31.53
77041;BME280;65974;42.664;23.264;2023-02-26T07:38:46;92884.72;;;15.16;30.99
77041;BME280;65974;42.664;23.264;2023-02-26T07:41:12;92899.78;;;15.23;30.45
77041;BME280;65974;42.664;23.264;2023-02-26T07:43:37;92918.25;;;15.21;31.17
77041;BME280;65974;42.664;23.264;2023-02-26T07:46:03;92907.72;;;15.26;31.12
77041;BME280;65974;42.664;23.264;2023-02-26T07:48:28;92925.16;;;15.31;30.18
77041;BME280;65974;42.664;23.264;2023-02-26T07:50:54;92922.63;;;15.36;30.82
77041;BME280;65974;42.664;23.264;2023-02-26T07:53:20;92941.03;;;15.47;30.02
77041;BME280;65974;42.664;23.264;2023-02-26T07:55:46;92954.75;;;15.49;29.96
77041;BME280;65974;42.664;23.264;2023-02-26T07:58:11;92963.09;;;15.51;30.27
77041;BME280;65974;42.664;23.264;2023-02-26T08:00:37;92950.56;;;15.57;30.51
77041;BME280;65974;42.664;23.264;2023-02-26T08:03:02;92960.88;;;15.59;29.77
77041;BME280;65974;42.664;23.264;2023-02-26T08:05:28;92964.28;;;15.59;30.11
77041;BME280;65974;42.664;23.264;2023-02-26T08:07:53;92974.59;;;15.61;30.35
77041;BME280;65974;42.664;23.264;2023-02-26T08:10:19;92975.50;;;15.67;30.29
77041;BME280;65974;42.664;23.264;2023-02-26T08:12:44;92939.41;;;15.59;30.52
77041;BME280;65974;42.664;23.264;2023-02-26T08:15:10;92964.03;;;15.66;30.53
77041;BME280;65974;42.664;23.264;2023-02-26T08:17:38;92962.22;;;15.63;30.79
77041;BME280;65974;42.664;23.264;2023-02-26T08:20:05;92977.13;;;15.64;30.29
77041;BME280;65974;42.664;23.264;2023-02-26T08:22:30;92987.31;;;15.69;30.43
77041;BME280;65974;42.664;23.264;2023-02-26T08:24:56;92971.63;;;15.68;30.83
77041;BME280;65974;42.664;23.264;2023-02-26T08:27:22;92967.03;;;15.77;30.24
77041;BME280;65974;42.664;23.264;2023-02-26T08:29:47;92942.28;;;15.73;30.65
77041;BME280;65974;42.664;23.264;2023-02-26T08:32:15;92938.09;;;15.72;30.66
77041;BME280;65974;42.664;23.264;2023-02-26T08:34:41;92971.19;;;15.69;30.69
77041;BME280;65974;42.664;23.264;2023-02-26T08:37:07;92982.22;;;15.71;30.66
77041;BME280;65974;42.664;23.264;2023-02-26T08:39:35;92964.78;;;15.76;29.99
77041;BME280;65974;42.664;23.264;2023-02-26T08:42:06;92978.06;;;15.79;30.46
77041;BME280;65974;42.664;23.264;2023-02-26T08:44:32;93004.34;;;15.84;30.32
77041;BME280;65974;42.664;23.264;2023-02-26T08:46:58;92999.69;;;15.85;29.96
77041;BME280;65974;42.664;23.264;2023-02-26T08:49:23;93003.16;;;15.94;30.41
77041;BME280;65974;42.664;23.264;2023-02-26T08:51:49;92985.84;;;15.95;30.62
77041;BME280;65974;42.664;23.264;2023-02-26T08:54:14;93008.66;;;16.00;29.83
77041;BME280;65974;42.664;23.264;2023-02-26T08:56:40;92990.63;;;16.00;29.80
77041;BME280;65974;42.664;23.264;2023-02-26T08:59:05;93005.38;;;15.96;29.17
77041;BME280;65974;42.664;23.264;2023-02-26T09:01:31;92991.38;;;16.01;29.53
77041;BME280;65974;42.664;23.264;2023-02-26T09:03:56;92999.28;;;16.04;29.59
77041;BME280;65974;42.664;23.264;2023-02-26T09:06:22;93011.81;;;16.07;29.38
77041;BME280;65974;42.664;23.264;2023-02-26T09:08:47;92974.81;;;16.11;29.42
77041;BME280;65974;42.664;23.264;2023-02-26T09:11:13;92991.25;;;16.22;29.04
77041;BME280;65974;42.664;23.264;2023-02-26T09:13:39;92978.38;;;16.36;29.27
77041;BME280;65974;42.664;23.264;2023-02-26T09:16:05;92991.56;;;16.52;28.91
77041;BME280;65974;42.664;23.264;2023-02-26T09:18:30;92994.81;;;16.65;28.78
77041;BME280;65974;42.664;23.264;2023-02-26T09:20:55;93005.41;;;16.68;28.31
77041;BME280;65974;42.664;23.264;2023-02-26T09:23:21;93004.66;;;16.86;28.38
77041;BME280;65974;42.664;23.264;2023-02-26T09:25:51;93004.59;;;17.04;27.89
77041;BME280;65974;42.664;23.264;2023-02-26T09:28:18;93010.41;;;17.12;27.96
77041;BME280;65974;42.664;23.264;2023-02-26T09:30:43;93010.34;;;17.30;27.73
77041;BME280;65974;42.664;23.264;2023-02-26T09:33:09;92990.59;;;17.33;27.51
77041;BME280;65974;42.664;23.264;2023-02-26T09:35:35;93009.59;;;17.29;26.63
77041;BME280;65974;42.664;23.264;2023-02-26T09:38:01;93023.91;;;17.53;27.07
77041;BME280;65974;42.664;23.264;2023-02-26T09:43:12;93009.34;;;17.60;26.80
77041;BME280;65974;42.664;23.264;2023-02-26T09:45:41;92993.75;;;17.73;26.89
77041;BME280;65974;42.664;23.264;2023-02-26T09:48:11;93043.97;;;17.76;26.31
77041;BME280;65974;42.664;23.264;2023-02-26T09:50:47;93008.16;;;17.84;26.61
77041;BME280;65974;42.664;23.264;2023-02-26T09:55:48;93010.41;;;17.62;26.72
77041;BME280;65974;42.664;23.264;2023-02-26T10:10:01;93020.91;;;17.42;27.45
77041;BME280;65974;42.664;23.264;2023-02-26T10:12:29;93013.13;;;17.53;28.13
77041;BME280;65974;42.664;23.264;2023-02-26T10:15:01;93008.38;;;17.39;27.71
77041;BME280;65974;42.664;23.264;2023-02-26T10:25:48;93017.06;;;17.34;28.54
77041;BME280;65974;42.664;23.264;2023-02-26T10:31:33;92980.13;;;17.35;28.43
77041;BME280;65974;42.664;23.264;2023-02-26T10:34:14;92994.63;;;17.37;27.78
77041;BME280;65974;42.664;23.264;2023-02-26T10:39:37;92973.88;;;17.29;28.52
77041;BME280;65974;42.664;23.264;2023-02-26T10:42:11;92958.31;;;17.33;28.35
77041;BME280;65974;42.664;23.264;2023-02-26T10:48:08;92958.25;;;17.09;29.56
77041;BME280;65974;42.664;23.264;2023-02-26T10:50:44;92981.44;;;17.06;30.09
77041;BME280;65974;42.664;23.264;2023-02-26T10:53:12;92973.25;;;17.01;29.76
77041;BME280;65974;42.664;23.264;2023-02-26T10:55:49;92967.88;;;16.92;30.52
77041;BME280;65974;42.664;23.264;2023-02-26T10:58:17;92935.63;;;16.83;30.35
77041;BME280;65974;42.664;23.264;2023-02-26T11:00:47;92953.84;;;16.88;30.17
77041;BME280;65974;42.664;23.264;2023-02-26T11:06:06;92933.28;;;16.76;30.91
77041;BME280;65974;42.664;23.264;2023-02-26T11:08:39;92949.84;;;16.74;30.26
77041;BME280;65974;42.664;23.264;2023-02-26T11:11:06;92937.75;;;16.70;30.08
77041;BME280;65974;42.664;23.264;2023-02-26T11:13:34;92949.13;;;16.65;30.12
77041;BME280;65974;42.664;23.264;2023-02-26T11:16:13;92928.50;;;16.62;30.12
77041;BME280;65974;42.664;23.264;2023-02-26T11:18:54;92901.22;;;16.54;30.74
77041;BME280;65974;42.664;23.264;2023-02-26T11:21:34;92925.25;;;16.58;30.24
77041;BME280;65974;42.664;23.264;2023-02-26T11:24:04;92944.94;;;16.55;30.47
77041;BME280;65974;42.664;23.264;2023-02-26T11:26:34;92957.38;;;16.52;30.91
77041;BME280;65974;42.664;23.264;2023-02-26T11:29:00;92947.78;;;16.51;31.68
77041;BME280;65974;42.664;23.264;2023-02-26T11:31:26;92934.81;;;16.31;31.48
77041;BME280;65974;42.664;23.264;2023-02-26T11:33:58;92916.31;;;16.15;32.39
77041;BME280;65974;42.664;23.264;2023-02-26T11:36:25;92938.69;;;16.21;32.32
77041;BME280;65974;42.664;23.264;2023-02-26T11:38:57;92952.28;;;16.18;32.70
77041;BME280;65974;42.664;23.264;2023-02-26T11:41:27;92930.81;;;16.18;32.85
77041;BME280;65974;42.664;23.264;2023-02-26T11:44:14;92941.69;;;16.05;33.13
77041;BME280;65974;42.664;23.264;2023-02-26T11:46:50;92968.41;;;16.09;33.09
77041;BME280;65974;42.664;23.264;2023-02-26T11:49:20;92958.69;;;16.02;34.32
77041;BME280;65974;42.664;23.264;2023-02-26T11:51:47;92925.88;;;15.89;33.84
77041;BME280;65974;42.664;23.264;2023-02-26T11:54:26;92963.91;;;15.88;34.80
77041;BME280;65974;42.664;23.264;2023-02-26T11:57:00;92975.22;;;15.83;34.25
77041;BME280;65974;42.664;23.264;2023-02-26T11:59:25;92955.84;;;15.88;34.60
77041;BME280;65974;42.664;23.264;2023-02-26T12:01:52;92965.38;;;15.89;35.14
77041;BME280;65974;42.664;23.264;2023-02-26T12:04:23;92979.56;;;15.89;34.49
77041;BME280;65974;42.664;23.264;2023-02-26T12:06:51;92991.19;;;15.95;35.95
77041;BME280;65974;42.664;23.264;2023-02-26T12:09:17;93012.84;;;15.92;35.43
77041;BME280;65974;42.664;23.264;2023-02-26T12:19:37;93027.31;;;15.94;35.55
77041;BME280;65974;42.664;23.264;2023-02-26T12:30:30;93003.53;;;15.57;36.92
77041;BME280;65974;42.664;23.264;2023-02-26T12:39:00;93029.41;;;15.90;36.41
77041;BME280;65974;42.664;23.264;2023-02-26T12:41:51;93057.47;;;16.07;36.62
77041;BME280;65974;42.664;23.264;2023-02-26T12:44:33;93059.88;;;16.23;36.35
77041;BME280;65974;42.664;23.264;2023-02-26T12:51:13;93090.94;;;16.33;36.45
77041;BME280;65974;42.664;23.264;2023-02-26T12:56:14;93072.72;;;16.38;36.18
77041;BME280;65974;42.664;23.264;2023-02-26T13:12:32;93082.38;;;16.08;36.81
77041;BME280;65974;42.664;23.264;2023-02-26T13:20:25;93077.44;;;15.88;37.29
77041;BME280;65974;42.664;23.264;2023-02-26T13:22:58;93099.50;;;15.92;37.52
77041;BME280;65974;42.664;23.264;2023-02-26T13:28:01;93100.44;;;15.98;37.74
77041;BME280;65974;42.664;23.264;2023-02-26T13:30:33;93094.94;;;16.11;37.39
77041;BME280;65974;42.664;23.264;2023-02-26T13:33:00;93088.22;;;16.15;37.55
77041;BME280;65974;42.664;23.264;2023-02-26T13:35:36;93075.09;;;16.17;37.46
77041;BME280;65974;42.664;23.264;2023-02-26T13:41:03;93059.31;;;16.28;37.04
77041;BME280;65974;42.664;23.264;2023-02-26T13:43:33;93084.50;;;16.13;36.69
77041;BME280;65974;42.664;23.264;2023-02-26T13:51:44;93065.72;;;16.22;36.70
77041;BME280;65974;42.664;23.264;2023-02-26T13:59:24;93044.19;;;16.04;36.84
77041;BME280;65974;42.664;23.264;2023-02-26T14:01:52;93043.72;;;15.96;37.59
77041;BME280;65974;42.664;23.264;2023-02-26T14:06:53;93039.97;;;15.76;37.54
77041;BME280;65974;42.664;23.264;2023-02-26T14:15:17;93059.97;;;15.84;36.38
77041;BME280;65974;42.664;23.264;2023-02-26T14:17:46;93063.97;;;15.79;36.82
77041;BME280;65974;42.664;23.264;2023-02-26T14:20:19;93055.78;;;15.83;37.16
77041;BME280;65974;42.664;23.264;2023-02-26T14:22:49;93041.88;;;15.75;36.96
77041;BME280;65974;42.664;23.264;2023-02-26T14:25:35;93054.09;;;15.76;36.08
77041;BME280;65974;42.664;23.264;2023-02-26T14:33:28;93083.53;;;15.80;35.19
77041;BME280;65974;42.664;23.264;2023-02-26T14:35:54;93071.00;;;15.86;35.39
77041;BME280;65974;42.664;23.264;2023-02-26T14:38:25;93071.59;;;15.90;34.78
77041;BME280;65974;42.664;23.264;2023-02-26T14:41:17;93078.00;;;15.83;35.18
77041;BME280;65974;42.664;23.264;2023-02-26T14:43:59;93084.00;;;15.96;33.73
77041;BME280;65974;42.664;23.264;2023-02-26T14:46:27;93073.72;;;15.95;34.21
77041;BME280;65974;42.664;23.264;2023-02-26T14:48:53;93072.38;;;15.90;34.49
77041;BME280;65974;42.664;23.264;2023-02-26T15:02:36;93102.97;;;15.10;38.81
77041;BME280;65974;42.664;23.264;2023-02-26T15:23:56;93115.09;;;14.93;39.35
77041;BME280;65974;42.664;23.264;2023-02-26T15:26:32;93134.91;;;14.73;40.47
77041;BME280;65974;42.664;23.264;2023-02-26T15:29:00;93147.00;;;14.65;41.58
77041;BME280;65974;42.664;23.264;2023-02-26T15:31:30;93142.84;;;14.64;41.51
77041;BME280;65974;42.664;23.264;2023-02-26T15:33:57;93151.31;;;14.63;41.21
77041;BME280;65974;42.664;23.264;2023-02-26T15:36:23;93141.59;;;14.56;41.39
77041;BME280;65974;42.664;23.264;2023-02-26T15:38:55;93144.06;;;14.51;42.51
77041;BME280;65974;42.664;23.264;2023-02-26T15:41:23;93152.75;;;14.42;42.70
77041;BME280;65974;42.664;23.264;2023-02-26T15:43:52;93132.22;;;14.39;42.52
77041;BME280;65974;42.664;23.264;2023-02-26T15:46:24;93143.66;;;14.40;42.76
77041;BME280;65974;42.664;23.264;2023-02-26T15:48:51;93151.06;;;14.23;44.16
77041;BME280;65974;42.664;23.264;2023-02-26T15:51:19;93146.44;;;14.24;42.62
77041;BME280;65974;42.664;23.264;2023-02-26T15:53:48;93160.59;;;14.24;43.18
77041;BME280;65974;42.664;23.264;2023-02-26T15:56:27;93177.19;;;14.19;43.77
77041;BME280;65974;42.664;23.264;2023-02-26T15:58:58;93188.13;;;14.12;43.89
77041;BME280;65974;42.664;23.264;2023-02-26T16:01:27;93172.19;;;14.09;44.12
77041;BME280;65974;42.664;23.264;2023-02-26T16:03:57;93195.94;;;14.07;44.14
77041;BME280;65974;42.664;23.264;2023-02-26T16:06:32;93158.66;;;14.12;42.62
77041;BME280;65974;42.664;23.264;2023-02-26T16:08:59;93184.41;;;14.10;43.44
77041;BME280;65974;42.664;23.264;2023-02-26T16:11:34;93173.88;;;14.15;43.23